Time;durP1;ratioP1;P1;durP2;ratioP2;P2;SDS_P1;SDS_P2;PMS_P1;PMS_P2;Temp;Humidity;BMP_temperature;BMP_pressure;BME280_temperature;BME280_humidity;BME280_pressure;Samples;Min_cycle;Max_cycle;Signal;HPM_P1;HPM_P2
2023/06/15 00:02:28;;;;;;;4.17;2.70;;;27.20;40.70;;;;;;5088823;28;20189;-49
2023/06/15 00:04:58;;;;;;;2.80;2.60;;;27.10;40.60;;;;;;5086949;28;20899;-50
2023/06/15 00:07:30;;;;;;;2.00;1.90;;;27.10;40.60;;;;;;5085032;28;20282;-49
2023/06/15 00:10:03;;;;;;;3.03;2.83;;;27.10;40.70;;;;;;5077647;28;20221;-49
2023/06/15 00:12:33;;;;;;;2.53;2.20;;;27.00;40.60;;;;;;5088524;28;20197;-49
2023/06/15 00:15:06;;;;;;;2.77;2.30;;;27.00;40.60;;;;;;5069713;28;20204;-49
2023/06/15 00:17:37;;;;;;;3.93;2.23;;;27.00;40.60;;;;;;5093456;28;20509;-49
2023/06/15 00:20:12;;;;;;;3.27;2.30;;;27.00;40.60;;;;;;5085433;28;20220;-49
2023/06/15 00:22:45;;;;;;;3.23;2.93;;;27.00;40.70;;;;;;5086496;28;20189;-50
2023/06/15 00:25:16;;;;;;;2.50;2.30;;;27.00;40.70;;;;;;5056578;28;20599;-50
2023/06/15 00:27:46;;;;;;;2.30;2.10;;;27.00;40.70;;;;;;5088522;28;20193;-49
2023/06/15 00:30:18;;;;;;;2.77;2.50;;;27.00;40.70;;;;;;5088877;28;20697;-49
2023/06/15 00:33:00;;;;;;;2.30;2.13;;;26.90;40.70;;;;;;5067499;28;20244;-49
2023/06/15 00:35:30;;;;;;;4.10;2.77;;;27.00;40.70;;;;;;5088846;28;20189;-49
2023/06/15 00:38:01;;;;;;;4.67;2.63;;;26.90;40.70;;;;;;5086126;28;20189;-49
2023/06/15 00:40:32;;;;;;;2.43;2.23;;;26.90;40.80;;;;;;5089068;28;20201;-49
2023/06/15 00:43:02;;;;;;;2.40;2.20;;;26.90;40.80;;;;;;5083928;28;20209;-49
2023/06/15 00:45:43;;;;;;;3.33;3.00;;;26.90;40.80;;;;;;5088233;28;20583;-49
2023/06/15 00:48:14;;;;;;;3.60;2.07;;;26.90;40.80;;;;;;5087342;28;20217;-49
2023/06/15 00:50:45;;;;;;;2.37;2.20;;;26.90;40.90;;;;;;5053027;28;20217;-50
2023/06/15 00:53:15;;;;;;;2.40;2.20;;;26.80;40.90;;;;;;5088620;28;20185;-49
2023/06/15 00:55:47;;;;;;;2.43;2.23;;;26.80;40.80;;;;;;5086019;28;20223;-50
2023/06/15 00:58:18;;;;;;;3.80;2.57;;;26.80;40.90;;;;;;5075497;28;20193;-49
2023/06/15 01:00:53;;;;;;;2.77;2.20;;;26.80;40.90;;;;;;5052631;28;20537;-50
2023/06/15 01:03:22;;;;;;;2.40;2.20;;;26.80;40.90;;;;;;5069407;28;20217;-49
2023/06/15 01:05:58;;;;;;;2.70;2.50;;;26.80;41.00;;;;;;5088126;28;20196;-49
2023/06/15 01:08:29;;;;;;;3.03;2.40;;;26.80;41.00;;;;;;5067369;28;20649;-49
2023/06/15 01:11:02;;;;;;;3.00;2.40;;;26.80;41.00;;;;;;5087602;28;20229;-50
2023/06/15 01:13:34;;;;;;;2.57;2.37;;;26.80;41.00;;;;;;5082896;28;20626;-49
2023/06/15 01:16:10;;;;;;;2.67;2.40;;;26.70;41.00;;;;;;5090412;28;20198;-50
2023/06/15 01:18:46;;;;;;;3.07;2.70;;;26.70;41.00;;;;;;5083098;28;20200;-50
2023/06/15 01:21:19;;;;;;;2.57;2.37;;;26.70;41.00;;;;;;5076013;28;20200;-49
2023/06/15 01:23:59;;;;;;;3.13;2.33;;;26.70;41.10;;;;;;5092437;28;20346;-50
2023/06/15 01:26:32;;;;;;;2.40;2.20;;;26.70;41.10;;;;;;5086034;28;20200;-49
2023/06/15 01:29:03;;;;;;;2.63;2.20;;;26.70;41.10;;;;;;5077738;28;20310;-49
2023/06/15 01:31:52;;;;;;;2.37;2.17;;;26.70;41.10;;;;;;5086178;28;20697;-49
2023/06/15 01:34:33;;;;;;;3.37;2.33;;;26.70;41.10;;;;;;5092334;28;20209;-49
2023/06/15 01:37:03;;;;;;;4.03;2.43;;;26.70;41.20;;;;;;5087552;28;20267;-49
2023/06/15 01:39:35;;;;;;;2.37;2.10;;;26.60;41.10;;;;;;5091684;28;20197;-49
2023/06/15 01:42:10;;;;;;;3.23;2.20;;;26.60;41.10;;;;;;5092123;28;20181;-49
2023/06/15 01:44:52;;;;;;;2.90;2.33;;;26.60;41.10;;;;;;5072970;28;20202;-50
2023/06/15 01:47:26;;;;;;;3.00;2.40;;;26.60;41.10;;;;;;5091456;28;20189;-49
2023/06/15 01:49:58;;;;;;;3.47;2.50;;;26.60;41.20;;;;;;5079414;28;20197;-49
2023/06/15 01:52:27;;;;;;;3.20;2.30;;;26.60;41.20;;;;;;5073707;28;20258;-49
2023/06/15 01:54:58;;;;;;;3.37;2.30;;;26.60;41.20;;;;;;5086694;28;20208;-49
2023/06/15 01:57:27;;;;;;;2.30;2.20;;;26.50;41.20;;;;;;5080576;28;20213;-49
2023/06/15 02:00:11;;;;;;;3.00;2.73;;;26.50;41.20;;;;;;5091656;28;20732;-49
2023/06/15 02:02:39;;;;;;;2.80;2.60;;;26.50;41.30;;;;;;5088538;28;20201;-50
2023/06/15 02:05:09;;;;;;;3.30;2.60;;;26.50;41.30;;;;;;5089030;28;20583;-50
2023/06/15 02:07:37;;;;;;;2.57;2.37;;;26.50;41.30;;;;;;5069687;28;20211;-50
2023/06/15 02:10:07;;;;;;;2.60;2.40;;;26.50;41.30;;;;;;5090860;28;20619;-49
2023/06/15 02:12:37;;;;;;;4.27;2.70;;;26.50;41.40;;;;;;5076977;28;20193;-50
2023/06/15 02:15:07;;;;;;;3.03;2.73;;;26.50;41.40;;;;;;5071489;28;20672;-50
2023/06/15 02:17:42;;;;;;;2.53;2.33;;;26.40;41.30;;;;;;5103304;28;20200;-50
2023/06/15 02:20:14;;;;;;;4.17;2.47;;;26.50;41.40;;;;;;5088434;28;20227;-50
2023/06/15 02:22:46;;;;;;;4.57;2.60;;;26.40;41.30;;;;;;5087516;28;20205;-50
2023/06/15 02:25:17;;;;;;;3.60;2.80;;;26.40;41.30;;;;;;5070821;28;20207;-50
2023/06/15 02:27:46;;;;;;;2.60;2.40;;;26.40;41.40;;;;;;5089734;28;20266;-49
2023/06/15 02:30:14;;;;;;;3.17;2.40;;;26.40;41.40;;;;;;5073235;28;20205;-50
2023/06/15 02:32:48;;;;;;;2.90;2.60;;;26.40;41.40;;;;;;5086113;28;20205;-49
2023/06/15 02:35:20;;;;;;;2.47;2.27;;;26.40;41.40;;;;;;5091156;28;20196;-49
2023/06/15 02:37:53;;;;;;;3.00;2.70;;;26.40;41.50;;;;;;5067568;28;20190;-49
2023/06/15 02:40:27;;;;;;;3.07;2.83;;;26.40;41.50;;;;;;5083892;28;20205;-49
2023/06/15 02:42:55;;;;;;;4.67;2.70;;;26.40;41.50;;;;;;5084213;28;20181;-49
2023/06/15 02:45:26;;;;;;;3.57;2.80;;;26.40;41.50;;;;;;5088977;28;20201;-49
2023/06/15 02:47:58;;;;;;;3.27;2.60;;;26.30;41.50;;;;;;5079225;28;20185;-49
2023/06/15 02:50:26;;;;;;;2.60;2.40;;;26.30;41.50;;;;;;5087779;28;20302;-49
2023/06/15 02:52:57;;;;;;;2.57;2.40;;;26.30;41.50;;;;;;5082072;28;20336;-49
2023/06/15 02:55:30;;;;;;;4.40;2.50;;;26.30;41.50;;;;;;5064593;28;20267;-49
2023/06/15 02:58:00;;;;;;;3.00;2.47;;;26.30;41.50;;;;;;5090008;28;20201;-48
2023/06/15 03:00:32;;;;;;;3.00;2.40;;;26.30;41.60;;;;;;5090104;28;20208;-50
2023/06/15 03:03:05;;;;;;;3.10;2.83;;;26.30;42.20;;;;;;5087781;28;20258;-50
2023/06/15 03:05:36;;;;;;;3.33;2.87;;;26.30;41.60;;;;;;5076331;28;20542;-49
2023/06/15 03:08:07;;;;;;;4.87;2.87;;;26.30;41.60;;;;;;5069443;28;20212;-49
2023/06/15 03:10:37;;;;;;;3.07;2.80;;;26.30;41.60;;;;;;5077692;28;20217;-50
2023/06/15 03:13:07;;;;;;;2.73;2.40;;;26.30;41.60;;;;;;5090242;28;20197;-49
2023/06/15 03:15:38;;;;;;;5.10;2.70;;;26.30;41.60;;;;;;5090950;28;20193;-49
2023/06/15 03:18:09;;;;;;;2.70;2.50;;;26.20;41.60;;;;;;5093534;28;20189;-50
2023/06/15 03:20:43;;;;;;;2.83;2.63;;;26.20;41.60;;;;;;5069646;28;20646;-50
2023/06/15 03:23:15;;;;;;;3.20;2.90;;;26.20;41.60;;;;;;5062123;28;20193;-50
2023/06/15 03:25:44;;;;;;;4.13;2.70;;;26.20;41.70;;;;;;5085533;28;20189;-50
2023/06/15 03:28:16;;;;;;;2.70;2.50;;;26.20;41.90;;;;;;5068360;28;20241;-49
2023/06/15 03:30:46;;;;;;;5.47;3.10;;;26.20;41.70;;;;;;5064075;28;20629;-49
2023/06/15 03:33:23;;;;;;;3.50;2.77;;;26.20;41.70;;;;;;5068506;28;20208;-49
2023/06/15 03:36:18;;;;;;;3.33;2.77;;;26.20;41.80;;;;;;5069323;28;20189;-49
2023/06/15 03:38:49;;;;;;;3.40;3.10;;;26.10;41.70;;;;;;5071738;28;20198;-49
2023/06/15 03:41:20;;;;;;;4.90;3.33;;;26.20;41.70;;;;;;5069793;28;20198;-49
2023/06/15 03:43:50;;;;;;;4.20;2.80;;;26.20;41.80;;;;;;5062725;28;20202;-50
2023/06/15 03:46:21;;;;;;;3.33;2.50;;;26.20;41.80;;;;;;5069031;28;20194;-49
2023/06/15 03:48:51;;;;;;;5.63;3.17;;;26.20;41.80;;;;;;5048696;28;20539;-49
2023/06/15 03:51:19;;;;;;;3.23;2.93;;;26.20;41.80;;;;;;5048716;28;20218;-49
2023/06/15 03:53:50;;;;;;;2.73;2.53;;;26.20;41.80;;;;;;5057916;28;20353;-49
2023/06/15 03:56:20;;;;;;;3.63;2.97;;;26.10;41.80;;;;;;5065921;28;20217;-49
2023/06/15 03:58:47;;;;;;;4.50;3.17;;;26.10;41.70;;;;;;5050179;28;20225;-49
2023/06/15 04:01:19;;;;;;;3.03;2.73;;;26.10;41.80;;;;;;5069063;28;20250;-49
2023/06/15 04:03:47;;;;;;;5.00;3.23;;;26.10;41.90;;;;;;5047476;28;20194;-49
2023/06/15 04:06:21;;;;;;;5.67;2.97;;;26.10;41.90;;;;;;5051716;28;20284;-49
2023/06/15 04:08:52;;;;;;;4.53;3.27;;;26.10;41.80;;;;;;5055588;28;20875;-49
2023/06/15 04:11:24;;;;;;;5.47;3.30;;;26.10;41.80;;;;;;5038512;28;20225;-51
2023/06/15 04:13:56;;;;;;;3.20;2.90;;;26.10;41.80;;;;;;5068107;28;20537;-49
2023/06/15 04:16:27;;;;;;;3.50;3.20;;;26.00;41.80;;;;;;5067543;28;20193;-49
2023/06/15 04:18:59;;;;;;;3.57;2.93;;;26.00;41.80;;;;;;5039965;28;20201;-49
2023/06/15 04:21:32;;;;;;;5.97;3.20;;;26.00;41.80;;;;;;5062319;28;20309;-49
2023/06/15 04:24:05;;;;;;;4.07;3.30;;;26.00;41.80;;;;;;5063071;28;20210;-49
2023/06/15 04:26:37;;;;;;;5.93;3.90;;;26.00;41.90;;;;;;5067750;28;20186;-49
2023/06/15 04:29:08;;;;;;;7.53;3.80;;;26.00;41.90;;;;;;5055382;28;20265;-49
2023/06/15 04:31:44;;;;;;;3.93;3.50;;;26.00;41.90;;;;;;5046564;28;20390;-49
2023/06/15 04:34:15;;;;;;;3.30;2.93;;;26.00;41.90;;;;;;5048431;28;20269;-49
2023/06/15 04:36:56;;;;;;;5.97;3.40;;;26.00;41.90;;;;;;5043884;28;20198;-49
2023/06/15 04:39:31;;;;;;;5.50;3.53;;;26.00;42.00;;;;;;5043834;28;20832;-48
2023/06/15 04:42:02;;;;;;;5.03;3.33;;;26.00;42.00;;;;;;5048526;28;20205;-50
2023/06/15 04:44:33;;;;;;;4.70;3.67;;;26.00;42.10;;;;;;5041578;28;20653;-50
2023/06/15 04:47:04;;;;;;;3.63;3.33;;;26.00;42.10;;;;;;5027123;28;20248;-49
2023/06/15 04:49:42;;;;;;;4.37;3.00;;;26.00;42.10;;;;;;5047650;28;20194;-50
2023/06/15 04:52:16;;;;;;;6.80;3.43;;;26.00;42.10;;;;;;5046742;28;20230;-50
2023/06/15 04:54:48;;;;;;;3.60;3.07;;;25.90;42.10;;;;;;5034737;28;20198;-51
2023/06/15 04:57:19;;;;;;;4.90;3.30;;;26.00;42.70;;;;;;5030820;28;20622;-51
2023/06/15 04:59:51;;;;;;;5.10;3.57;;;26.00;42.10;;;;;;5057599;28;20224;-50
2023/06/15 05:02:23;;;;;;;6.10;3.33;;;25.90;42.10;;;;;;5031252;28;20226;-49
2023/06/15 05:04:52;;;;;;;4.63;3.87;;;25.90;42.20;;;;;;5044783;28;20698;-49
2023/06/15 05:07:19;;;;;;;7.87;3.70;;;25.90;42.20;;;;;;5028121;28;20206;-49
2023/06/15 05:10:07;;;;;;;9.47;4.00;;;25.90;42.50;;;;;;5046500;28;20198;-49
2023/06/15 05:12:36;;;;;;;6.50;4.13;;;25.90;42.70;;;;;;5043234;28;20229;-49
2023/06/15 05:15:11;;;;;;;8.73;5.00;;;25.90;42.90;;;;;;5045728;28;20726;-49
2023/06/15 05:17:42;;;;;;;7.57;4.53;;;25.90;43.60;;;;;;5043620;28;20206;-49
2023/06/15 05:20:14;;;;;;;5.13;3.60;;;25.90;43.50;;;;;;5044328;28;20219;-49
2023/06/15 05:22:57;;;;;;;5.00;4.00;;;25.80;43.30;;;;;;5045235;28;20202;-49
2023/06/15 05:25:27;;;;;;;3.80;3.40;;;25.90;43.30;;;;;;5047961;28;20260;-50
2023/06/15 05:27:58;;;;;;;4.33;3.43;;;25.90;43.30;;;;;;5036200;28;20237;-49
2023/06/15 05:30:32;;;;;;;7.27;3.40;;;25.90;43.20;;;;;;5068129;28;20245;-49
2023/06/15 05:33:07;;;;;;;4.13;3.40;;;25.90;43.20;;;;;;5067564;28;20221;-49
2023/06/15 05:35:37;;;;;;;5.80;3.77;;;25.90;43.20;;;;;;5062983;28;20194;-51
2023/06/15 05:38:09;;;;;;;5.20;3.87;;;25.90;43.10;;;;;;5066097;28;20208;-48
2023/06/15 05:40:39;;;;;;;6.23;3.60;;;25.90;43.20;;;;;;5073336;28;20202;-51
2023/06/15 05:43:10;;;;;;;4.03;3.50;;;26.00;43.20;;;;;;5038363;28;20206;-50
2023/06/15 05:45:40;;;;;;;3.80;3.40;;;26.00;43.20;;;;;;5065328;28;20621;-48
2023/06/15 05:48:09;;;;;;;3.87;3.30;;;26.00;43.10;;;;;;5067401;28;20194;-49
2023/06/15 05:50:41;;;;;;;7.40;3.70;;;26.00;43.10;;;;;;5066430;28;20198;-49
2023/06/15 05:53:11;;;;;;;3.87;3.53;;;26.00;43.00;;;;;;5068173;28;20247;-49
2023/06/15 05:55:45;;;;;;;5.40;3.63;;;26.00;43.00;;;;;;5052700;28;20202;-49
2023/06/15 05:58:16;;;;;;;6.20;3.67;;;26.00;42.90;;;;;;5070914;28;20231;-49
2023/06/15 06:00:44;;;;;;;5.67;3.77;;;26.00;42.90;;;;;;5069732;28;20221;-49
2023/06/15 06:03:16;;;;;;;6.23;3.60;;;26.10;43.00;;;;;;5071237;28;20733;-51
2023/06/15 06:05:46;;;;;;;3.30;3.00;;;26.10;42.90;;;;;;5054051;28;20197;-49
2023/06/15 06:08:18;;;;;;;3.17;2.87;;;26.10;42.90;;;;;;5068042;28;20217;-50
2023/06/15 06:10:50;;;;;;;4.90;3.53;;;26.10;42.90;;;;;;5068566;28;20647;-49
2023/06/15 06:13:22;;;;;;;4.63;3.10;;;26.10;42.80;;;;;;5071197;28;20218;-49
2023/06/15 06:15:53;;;;;;;6.23;3.43;;;26.10;42.80;;;;;;5070264;28;20213;-49
2023/06/15 06:18:21;;;;;;;3.20;2.90;;;26.10;42.80;;;;;;5068894;28;20197;-49
2023/06/15 06:20:50;;;;;;;4.13;3.00;;;26.10;42.70;;;;;;5066233;28;20746;-49
2023/06/15 06:23:23;;;;;;;5.40;3.50;;;26.20;42.80;;;;;;5070371;28;20259;-49
2023/06/15 06:25:56;;;;;;;3.73;2.90;;;26.20;42.80;;;;;;5053387;28;20200;-50
2023/06/15 06:28:30;;;;;;;4.17;3.30;;;26.10;42.70;;;;;;5069551;28;20663;-50
2023/06/15 06:31:00;;;;;;;4.00;2.97;;;26.20;42.70;;;;;;5065865;28;20619;-51
2023/06/15 06:33:43;;;;;;;6.43;3.00;;;26.10;42.70;;;;;;5070764;28;20279;-50
2023/06/15 06:36:15;;;;;;;4.10;2.90;;;26.20;42.70;;;;;;5070742;28;20540;-49
2023/06/15 06:38:43;;;;;;;5.73;3.20;;;26.20;42.70;;;;;;5066558;28;20518;-49
2023/06/15 06:41:28;;;;;;;4.27;3.00;;;26.20;42.70;;;;;;5070600;28;20217;-49
2023/06/15 06:43:58;;;;;;;4.43;3.17;;;26.20;42.70;;;;;;5067779;28;20238;-49
2023/06/15 06:46:29;;;;;;;4.57;3.10;;;26.20;42.60;;;;;;5069611;28;20194;-49
2023/06/15 06:49:06;;;;;;;4.70;3.20;;;26.20;42.60;;;;;;5062600;28;20189;-49
2023/06/15 06:51:37;;;;;;;3.30;3.00;;;26.20;42.60;;;;;;5070090;28;20260;-49
2023/06/15 06:54:06;;;;;;;3.43;3.00;;;26.20;42.60;;;;;;5070649;28;20225;-49
2023/06/15 06:56:36;;;;;;;3.80;3.20;;;26.20;42.60;;;;;;5064037;28;20695;-49
2023/06/15 06:59:03;;;;;;;4.90;3.03;;;26.20;42.60;;;;;;5065553;28;20201;-48
2023/06/15 07:01:32;;;;;;;5.03;3.10;;;26.30;42.60;;;;;;5056999;28;20201;-49
2023/06/15 07:04:03;;;;;;;3.67;2.90;;;26.20;42.60;;;;;;5070396;28;20615;-50
2023/06/15 07:06:34;;;;;;;3.40;2.60;;;26.30;42.60;;;;;;5069762;28;20190;-48
2023/06/15 07:09:05;;;;;;;3.27;2.97;;;26.30;42.60;;;;;;5065793;28;20213;-49
2023/06/15 07:11:35;;;;;;;5.17;2.90;;;26.30;42.60;;;;;;5070141;28;20252;-50
2023/06/15 07:14:04;;;;;;;5.60;3.10;;;26.30;42.60;;;;;;5069693;28;20702;-50
2023/06/15 07:16:37;;;;;;;3.13;2.83;;;26.30;42.60;;;;;;5051698;28;20302;-50
2023/06/15 07:19:05;;;;;;;4.53;3.10;;;26.30;42.60;;;;;;5064963;28;20241;-51
2023/06/15 07:21:35;;;;;;;3.27;2.87;;;26.30;42.50;;;;;;5056772;28;20189;-50
2023/06/15 07:24:04;;;;;;;3.13;2.67;;;26.30;42.60;;;;;;5063280;28;20221;-49
2023/06/15 07:26:36;;;;;;;3.73;3.10;;;26.30;42.50;;;;;;5068337;28;20189;-49
2023/06/15 07:29:04;;;;;;;3.80;2.47;;;26.30;42.50;;;;;;5067394;28;20248;-49
2023/06/15 07:31:36;;;;;;;3.30;2.87;;;26.30;42.50;;;;;;5065658;28;20242;-50
2023/06/15 07:34:05;;;;;;;4.03;2.80;;;26.40;42.60;;;;;;5069752;28;20219;-51
2023/06/15 07:36:35;;;;;;;3.23;2.73;;;26.40;42.60;;;;;;5067605;28;20201;-48
2023/06/15 07:39:05;;;;;;;3.40;2.80;;;26.40;42.60;;;;;;5066423;28;20217;-50
2023/06/15 07:41:35;;;;;;;3.77;2.80;;;26.40;42.60;;;;;;5066677;28;20208;-49
2023/06/15 07:44:12;;;;;;;2.67;2.47;;;26.40;42.50;;;;;;5064932;28;20208;-49
2023/06/15 07:46:49;;;;;;;3.20;2.70;;;26.40;42.60;;;;;;5066269;28;20206;-49
2023/06/15 07:49:21;;;;;;;3.83;2.97;;;26.40;42.50;;;;;;5069156;28;20190;-49
2023/06/15 07:52:15;;;;;;;2.87;2.50;;;26.40;42.50;;;;;;5069019;28;20215;-49
2023/06/15 07:54:44;;;;;;;2.83;2.53;;;26.40;42.50;;;;;;5051746;28;20195;-48
2023/06/15 07:57:16;;;;;;;2.87;2.33;;;26.40;42.50;;;;;;5068269;28;20205;-49
2023/06/15 07:59:46;;;;;;;3.53;2.90;;;26.50;42.50;;;;;;5050886;28;20197;-49
2023/06/15 08:02:17;;;;;;;3.13;2.83;;;26.50;43.20;;;;;;5069260;28;20634;-49
2023/06/15 08:04:48;;;;;;;3.23;2.93;;;26.50;42.50;;;;;;5066452;28;20596;-49
2023/06/15 08:07:18;;;;;;;5.13;2.60;;;26.50;42.50;;;;;;5066478;28;20731;-49
2023/06/15 08:09:50;;;;;;;2.83;2.57;;;26.50;42.50;;;;;;5069805;28;20513;-49
2023/06/15 08:12:21;;;;;;;3.50;2.80;;;26.50;42.50;;;;;;5069704;28;20615;-49
2023/06/15 08:14:53;;;;;;;3.33;2.50;;;26.50;42.50;;;;;;5069689;28;20190;-49
2023/06/15 08:17:25;;;;;;;2.97;2.67;;;26.50;42.60;;;;;;5066368;28;20193;-49
2023/06/15 08:20:00;;;;;;;3.10;2.80;;;26.50;42.50;;;;;;5047084;28;20645;-48
2023/06/15 08:22:30;;;;;;;2.73;2.53;;;26.60;42.60;;;;;;5016593;28;20212;-50
2023/06/15 08:24:59;;;;;;;2.57;2.33;;;26.60;42.60;;;;;;5060072;28;20194;-50
2023/06/15 08:27:38;;;;;;;4.33;2.47;;;26.60;42.60;;;;;;5068323;28;20204;-50
2023/06/15 08:30:07;;;;;;;3.57;2.77;;;26.60;42.60;;;;;;5067719;28;20229;-50
2023/06/15 08:32:38;;;;;;;2.77;2.57;;;26.60;42.60;;;;;;5064353;28;20222;-49
2023/06/15 08:35:10;;;;;;;3.67;2.50;;;26.70;42.70;;;;;;5067868;28;20202;-49
2023/06/15 08:37:41;;;;;;;2.60;2.40;;;26.70;42.70;;;;;;5065888;28;20193;-50
2023/06/15 08:40:11;;;;;;;4.13;2.33;;;26.70;42.60;;;;;;5067933;28;20209;-49
2023/06/15 08:42:48;;;;;;;3.83;2.37;;;26.70;42.60;;;;;;5063196;28;20192;-49
2023/06/15 08:45:19;;;;;;;2.60;2.40;;;26.70;42.60;;;;;;5051492;28;20370;-50
2023/06/15 08:47:55;;;;;;;2.83;2.30;;;26.70;42.70;;;;;;5059610;28;20230;-49
2023/06/15 08:50:25;;;;;;;3.07;2.40;;;26.70;42.60;;;;;;5048699;28;20215;-49
2023/06/15 08:53:10;;;;;;;5.17;2.97;;;26.70;42.70;;;;;;5067219;28;20308;-48
2023/06/15 08:55:40;;;;;;;3.07;2.47;;;26.80;42.70;;;;;;5048047;28;20202;-49
2023/06/15 08:58:12;;;;;;;2.80;2.60;;;26.70;42.70;;;;;;5034512;28;20201;-49
2023/06/15 09:00:43;;;;;;;2.80;2.50;;;26.80;42.80;;;;;;5055022;28;20221;-51
2023/06/15 09:03:13;;;;;;;3.87;2.70;;;26.80;42.80;;;;;;5051322;28;20186;-51
2023/06/15 09:05:43;;;;;;;4.47;2.47;;;26.80;42.70;;;;;;5051118;28;20204;-48
2023/06/15 09:08:11;;;;;;;2.77;2.53;;;26.90;42.80;;;;;;5065100;28;20659;-49
2023/06/15 09:10:42;;;;;;;2.70;2.50;;;26.90;42.80;;;;;;5048935;28;20202;-49
2023/06/15 09:13:21;;;;;;;3.27;2.40;;;26.90;42.80;;;;;;5060318;28;20221;-49
2023/06/15 09:16:00;;;;;;;3.17;2.40;;;26.80;42.70;;;;;;5053185;28;20315;-49
2023/06/15 09:18:28;;;;;;;2.70;2.50;;;26.90;42.80;;;;;;5050463;28;20272;-49
2023/06/15 09:21:01;;;;;;;3.13;2.87;;;26.90;42.80;;;;;;5062769;28;20206;-50
2023/06/15 09:23:33;;;;;;;3.00;2.60;;;26.90;42.80;;;;;;5068640;28;20219;-49
2023/06/15 09:26:07;;;;;;;2.77;2.57;;;27.00;42.90;;;;;;5050149;28;20190;-49
2023/06/15 09:28:45;;;;;;;3.97;2.53;;;27.00;42.90;;;;;;5067644;28;20245;-49
2023/06/15 09:31:36;;;;;;;3.13;2.43;;;27.00;42.90;;;;;;5035607;28;20226;-50
2023/06/15 09:34:07;;;;;;;5.23;2.77;;;27.00;42.90;;;;;;5053172;28;20233;-50
2023/06/15 09:36:48;;;;;;;3.43;2.60;;;27.00;42.90;;;;;;5054499;28;20206;-50
2023/06/15 09:39:26;;;;;;;2.97;2.67;;;27.00;42.90;;;;;;5071219;28;20200;-51
2023/06/15 09:42:00;;;;;;;4.93;2.70;;;27.00;42.90;;;;;;5071065;28;20206;-50
2023/06/15 09:44:33;;;;;;;2.73;2.43;;;27.10;42.90;;;;;;5051217;28;20228;-50
2023/06/15 09:47:15;;;;;;;2.73;2.37;;;27.10;42.90;;;;;;5052925;28;20259;-51
2023/06/15 09:49:53;;;;;;;2.77;2.50;;;27.10;42.90;;;;;;5053749;28;20201;-50
2023/06/15 09:52:22;;;;;;;2.93;2.30;;;27.10;43.50;;;;;;5038802;28;20228;-50
2023/06/15 09:54:54;;;;;;;2.40;2.20;;;27.10;42.90;;;;;;5066673;28;20209;-50
2023/06/15 09:57:27;;;;;;;3.50;2.43;;;27.10;42.90;;;;;;5071330;28;20679;-49
2023/06/15 09:59:58;;;;;;;4.03;2.30;;;27.20;43.00;;;;;;5071275;28;20198;-49
2023/06/15 10:02:31;;;;;;;2.70;2.50;;;27.20;43.00;;;;;;5071323;28;20190;-49
2023/06/15 10:05:13;;;;;;;4.50;2.93;;;27.20;43.00;;;;;;5068825;28;20198;-49
2023/06/15 10:07:51;;;;;;;3.47;2.50;;;27.20;43.00;;;;;;5054856;28;20205;-49
2023/06/15 10:10:26;;;;;;;3.50;2.33;;;27.20;43.00;;;;;;5054980;28;20749;-49
2023/06/15 10:13:00;;;;;;;4.03;2.53;;;27.30;43.10;;;;;;5050632;28;20232;-49
2023/06/15 10:15:34;;;;;;;2.70;2.30;;;27.30;43.70;;;;;;5054392;28;20193;-50
2023/06/15 10:18:13;;;;;;;2.73;2.40;;;27.30;43.00;;;;;;5054259;28;20705;-51
2023/06/15 10:20:41;;;;;;;2.53;2.33;;;27.40;43.10;;;;;;5053888;28;20205;-49
2023/06/15 10:23:17;;;;;;;4.07;2.70;;;27.40;43.10;;;;;;5056702;28;20293;-49
2023/06/15 10:26:12;;;;;;;3.13;2.80;;;27.40;43.10;;;;;;5048269;28;20206;-49
2023/06/15 10:28:54;;;;;;;2.83;2.37;;;27.40;43.10;;;;;;5061056;28;20230;-50
2023/06/15 10:31:54;;;;;;;3.40;2.70;;;27.40;43.20;;;;;;5048139;28;20218;-49
2023/06/15 10:34:34;;;;;;;2.70;2.50;;;27.40;43.10;;;;;;4988544;28;20664;-50
2023/06/15 10:37:23;;;;;;;2.73;2.53;;;27.50;43.20;;;;;;5028827;28;20198;-49
2023/06/15 10:40:12;;;;;;;3.10;2.80;;;27.50;43.30;;;;;;5050321;28;20199;-49
2023/06/15 10:42:52;;;;;;;2.83;2.57;;;27.50;43.30;;;;;;5038827;28;20234;-49
2023/06/15 10:45:29;;;;;;;4.40;2.80;;;27.60;43.30;;;;;;5049830;28;20206;-49
2023/06/15 10:48:06;;;;;;;2.80;2.60;;;27.60;43.30;;;;;;5050495;28;20202;-49
2023/06/15 10:50:48;;;;;;;2.93;2.60;;;27.60;43.30;;;;;;5050295;28;20248;-49
2023/06/15 10:53:27;;;;;;;3.40;2.37;;;27.60;43.30;;;;;;5034163;28;20214;-49
2023/06/15 10:55:59;;;;;;;3.70;3.03;;;27.70;43.30;;;;;;5047816;28;20217;-49
2023/06/15 10:58:29;;;;;;;2.80;2.50;;;27.70;43.40;;;;;;5034992;28;20689;-49
2023/06/15 11:01:19;;;;;;;2.60;2.40;;;27.70;43.40;;;;;;5047514;28;20616;-49
2023/06/15 11:03:58;;;;;;;2.90;2.70;;;27.70;43.40;;;;;;5051020;28;20202;-49
2023/06/15 11:06:38;;;;;;;2.77;2.57;;;27.80;43.40;;;;;;5037818;28;20202;-49
2023/06/15 11:09:13;;;;;;;2.60;2.40;;;27.80;43.40;;;;;;5030967;28;20198;-49
2023/06/15 11:11:46;;;;;;;2.80;2.40;;;27.80;43.40;;;;;;5028994;28;20205;-50
2023/06/15 11:14:23;;;;;;;2.83;2.63;;;27.90;43.50;;;;;;5037121;28;20214;-49
2023/06/15 11:17:08;;;;;;;3.27;2.97;;;27.90;43.40;;;;;;5030048;28;20195;-49
2023/06/15 11:19:42;;;;;;;3.00;2.43;;;27.90;43.40;;;;;;5029721;28;20220;-49
2023/06/15 11:22:28;;;;;;;2.90;2.60;;;27.90;43.30;;;;;;5047169;28;20201;-49
2023/06/15 11:25:03;;;;;;;3.57;3.00;;;27.90;43.30;;;;;;5045990;28;20973;-49
2023/06/15 11:27:53;;;;;;;2.83;2.63;;;28.00;43.30;;;;;;5062214;28;20200;-49
2023/06/15 11:30:22;;;;;;;2.83;2.63;;;28.00;43.30;;;;;;5049695;28;20238;-49
2023/06/15 11:32:53;;;;;;;3.13;2.83;;;28.00;43.20;;;;;;5045702;28;20237;-50
2023/06/15 11:35:25;;;;;;;2.60;2.40;;;28.00;43.20;;;;;;5049606;28;20217;-49
2023/06/15 11:37:57;;;;;;;3.73;2.63;;;28.10;43.20;;;;;;5031836;28;20211;-49
2023/06/15 11:40:27;;;;;;;3.00;2.70;;;28.10;43.10;;;;;;5045657;28;20190;-50
2023/06/15 11:43:05;;;;;;;3.17;2.47;;;28.10;43.00;;;;;;5044335;28;20681;-50
2023/06/15 11:45:34;;;;;;;3.00;2.70;;;28.20;42.90;;;;;;5045367;28;20194;-49
2023/06/15 11:48:16;;;;;;;3.10;2.77;;;28.20;42.80;;;;;;5032349;28;20730;-49
2023/06/15 11:50:46;;;;;;;3.30;3.00;;;28.20;42.80;;;;;;5047689;28;20221;-51
2023/06/15 11:53:18;;;;;;;2.87;2.67;;;28.20;42.80;;;;;;5048176;28;20217;-50
2023/06/15 11:55:52;;;;;;;3.30;3.00;;;28.30;42.70;;;;;;5045935;28;20218;-50
2023/06/15 11:58:25;;;;;;;2.83;2.60;;;28.30;42.70;;;;;;5049155;28;20195;-48
2023/06/15 12:00:52;;;;;;;3.80;2.77;;;28.30;42.70;;;;;;5041921;28;20605;-49
2023/06/15 12:03:22;;;;;;;3.43;2.90;;;28.30;42.70;;;;;;5032457;28;20198;-49
2023/06/15 12:06:00;;;;;;;2.97;2.70;;;28.30;42.70;;;;;;5049104;28;20222;-50
2023/06/15 12:08:31;;;;;;;3.17;2.87;;;28.40;42.80;;;;;;5046175;28;20197;-50
2023/06/15 12:11:00;;;;;;;3.07;2.77;;;28.40;42.90;;;;;;5028227;28;20214;-49
2023/06/15 12:13:29;;;;;;;3.43;2.73;;;28.40;42.80;;;;;;5048597;28;20218;-50
2023/06/15 12:16:07;;;;;;;2.90;2.60;;;28.40;42.90;;;;;;5052338;28;20212;-51
2023/06/15 12:18:40;;;;;;;2.63;2.43;;;28.40;42.90;;;;;;5021522;28;20202;-50
2023/06/15 12:21:11;;;;;;;4.43;2.73;;;28.40;43.00;;;;;;5048749;28;20213;-50
2023/06/15 12:23:48;;;;;;;3.00;2.77;;;28.50;43.10;;;;;;5031730;28;20241;-50
2023/06/15 12:26:29;;;;;;;3.67;2.57;;;28.50;43.00;;;;;;5031779;28;20217;-50
2023/06/15 12:29:00;;;;;;;3.07;2.87;;;28.50;42.90;;;;;;5046878;28;20306;-50
2023/06/15 12:31:34;;;;;;;4.47;2.53;;;28.50;42.90;;;;;;5066024;28;20302;-49
2023/06/15 12:34:29;;;;;;;2.97;2.67;;;28.60;42.80;;;;;;5043117;28;20299;-49
2023/06/15 12:36:59;;;;;;;3.00;2.70;;;28.60;42.80;;;;;;5049415;28;20402;-50
2023/06/15 12:39:30;;;;;;;2.83;2.63;;;28.50;42.70;;;;;;5055771;28;20224;-50
2023/06/15 12:42:05;;;;;;;2.87;2.67;;;28.60;42.80;;;;;;5064301;28;20193;-49
2023/06/15 12:44:38;;;;;;;2.77;2.57;;;28.60;42.80;;;;;;5063360;28;20849;-49
2023/06/15 12:47:10;;;;;;;3.03;2.77;;;28.60;42.80;;;;;;5057686;28;20197;-51
2023/06/15 12:49:42;;;;;;;2.83;2.63;;;28.60;42.80;;;;;;5064784;28;20217;-51
2023/06/15 12:52:13;;;;;;;2.90;2.70;;;28.70;42.90;;;;;;5059579;28;20182;-51
2023/06/15 12:54:44;;;;;;;2.73;2.53;;;28.70;42.90;;;;;;4993787;28;20217;-51
2023/06/15 12:57:15;;;;;;;2.93;2.57;;;28.70;42.80;;;;;;5068514;28;20205;-50
2023/06/15 12:59:49;;;;;;;2.90;2.70;;;28.70;42.70;;;;;;5067862;28;20201;-50
2023/06/15 13:02:20;;;;;;;3.03;2.73;;;28.80;42.70;;;;;;5067694;28;20189;-49
2023/06/15 13:04:47;;;;;;;2.93;2.73;;;28.80;42.70;;;;;;5055977;28;20217;-49
2023/06/15 13:07:19;;;;;;;3.30;2.37;;;28.80;42.70;;;;;;5075264;28;20213;-49
2023/06/15 13:09:51;;;;;;;4.50;2.50;;;28.80;42.60;;;;;;5071184;28;20190;-50
2023/06/15 13:12:20;;;;;;;2.90;2.60;;;28.80;42.60;;;;;;5071226;28;20216;-50
2023/06/15 13:14:53;;;;;;;3.20;2.60;;;28.80;42.40;;;;;;5068362;28;20232;-50
2023/06/15 13:17:24;;;;;;;3.10;2.60;;;28.90;42.40;;;;;;5055006;28;20189;-51
2023/06/15 13:19:56;;;;;;;3.03;2.40;;;28.80;42.20;;;;;;5063768;28;20210;-51